Time;durP1;ratioP1;P1;durP2;ratioP2;P2;SDS_P1;SDS_P2;PMS_P1;PMS_P2;Temp;Humidity;BMP_temperature;BMP_pressure;BME280_temperature;BME280_humidity;BME280_pressure;Samples;Min_cycle;Max_cycle;Signal;HPM_P1;HPM_P2
2022/02/01 00:45:01;;;;;;;;;;;;;;;;;;;;;
2022/02/01 00:51:02;;;;;;;3.50;2.10;;;;;;;;;;4976854;28;20416;-82
2022/02/01 02:35:23;;;;;;;7.10;5.27;;;;;;;;;;5005598;28;20821;-81
2022/02/01 03:03:39;;;;;;;;;;;;;;;;;;;;;
2022/02/01 03:22:02;;;;;;;8.07;5.93;;;;;;;;;;4864390;29;20418;-81
2022/02/01 03:31:19;;;;;;;;;;;;;;;;;;;;;
2022/02/01 03:43:51;;;;;;;;;;;;;;;;;;;;;
2022/02/01 04:02:08;;;;;;;7.10;5.77;;;;;;;;;;4993180;28;20865;-82
2022/02/01 04:11:19;;;;;;;;;;;;;;;;;;;;;
2022/02/01 04:32:09;;;;;;;;;;;;;;;;;;;;;
2022/02/01 04:35:03;;;;;;;8.70;5.87;;;;;;;;;;5037472;28;20501;-82
2022/02/01 05:16:40;;;;;;;;;;;;;;;;;;;;;
2022/02/01 05:43:51;;;;;;;8.50;6.87;;;;;;;;;;5020821;23;20448;-82
2022/02/01 05:46:17;;;;;;;9.30;6.80;;;;;;;;;;5033931;28;20434;-82
2022/02/01 05:48:43;;;;;;;10.13;6.60;;;;;;;;;;5036329;28;20727;-82
2022/02/01 05:51:10;;;;;;;9.87;7.37;;;;;;;;;;5036148;28;20474;-81
2022/02/01 05:53:36;;;;;;;11.53;7.77;;;;;;;;;;5036527;28;20867;-81
2022/02/01 05:56:02;;;;;;;16.50;8.53;;;;;;;;;;5036083;28;20458;-81
2022/02/01 05:58:28;;;;;;;10.77;7.57;;;;;;;;;;5036002;28;20911;-82
2022/02/01 06:00:54;;;;;;;13.23;7.83;;;;;;;;;;5036640;28;20763;-81
2022/02/01 06:03:20;;;;;;;13.30;8.13;;;;;;;;;;5036512;28;20800;-81
2022/02/01 06:05:46;;;;;;;9.37;7.30;;;;;;;;;;5034884;28;20982;-81
2022/02/01 06:08:12;;;;;;;12.33;7.97;;;;;;;;;;5034471;28;20402;-81
2022/02/01 06:10:38;;;;;;;11.80;7.50;;;;;;;;;;5032263;28;20938;-80
2022/02/01 06:13:04;;;;;;;10.90;7.03;;;;;;;;;;5033647;28;20410;-81
2022/02/01 06:15:31;;;;;;;8.43;5.87;;;;;;;;;;5032720;28;20434;-81
2022/02/01 06:17:57;;;;;;;7.57;6.10;;;;;;;;;;5035229;28;20468;-81
2022/02/01 06:20:24;;;;;;;9.00;6.73;;;;;;;;;;5034385;28;20934;-81
2022/02/01 06:22:50;;;;;;;7.97;5.73;;;;;;;;;;5034731;28;20433;-81
2022/02/01 06:25:22;;;;;;;8.57;6.10;;;;;;;;;;5036608;28;20426;-82
2022/02/01 06:27:48;;;;;;;8.80;6.43;;;;;;;;;;5037383;28;20858;-81
2022/02/01 06:30:14;;;;;;;8.90;6.43;;;;;;;;;;5039690;28;20766;-82
2022/02/01 06:32:41;;;;;;;9.00;5.97;;;;;;;;;;5040059;28;20489;-80
2022/02/01 06:35:08;;;;;;;8.70;5.97;;;;;;;;;;5039746;28;20538;-81
2022/02/01 06:37:34;;;;;;;9.53;6.47;;;;;;;;;;5040506;28;20500;-81
2022/02/01 06:40:00;;;;;;;10.80;8.00;;;;;;;;;;5040336;28;20413;-81
2022/02/01 06:42:27;;;;;;;10.40;8.00;;;;;;;;;;5040231;28;20519;-81
2022/02/01 06:44:53;;;;;;;11.13;8.27;;;;;;;;;;5040242;28;20426;-81
2022/02/01 06:47:19;;;;;;;10.73;7.90;;;;;;;;;;5040201;28;20887;-81
2022/02/01 06:49:46;;;;;;;10.57;7.33;;;;;;;;;;5039633;28;20441;-81
2022/02/01 06:52:12;;;;;;;8.90;6.73;;;;;;;;;;5039716;28;20413;-81
2022/02/01 06:54:40;;;;;;;9.93;7.20;;;;;;;;;;5039849;28;20426;-81
2022/02/01 06:57:07;;;;;;;8.20;6.30;;;;;;;;;;5040541;28;20454;-81
2022/02/01 06:59:33;;;;;;;6.90;5.50;;;;;;;;;;5040153;28;20415;-80
2022/02/01 07:01:59;;;;;;;7.07;5.90;;;;;;;;;;5046950;28;20413;-79
2022/02/01 07:04:25;;;;;;;8.73;5.20;;;;;;;;;;5044032;28;20422;-81
2022/02/01 07:06:51;;;;;;;6.20;4.87;;;;;;;;;;5046343;28;20407;-79
2022/02/01 07:09:19;;;;;;;7.30;5.10;;;;;;;;;;5046951;28;20426;-81
2022/02/01 07:11:45;;;;;;;5.43;4.43;;;;;;;;;;5039907;28;20490;-81
2022/02/01 07:14:11;;;;;;;4.83;3.47;;;;;;;;;;5040060;28;20427;-81
2022/02/01 07:16:37;;;;;;;7.70;5.00;;;;;;;;;;5040166;28;20865;-80
2022/02/01 07:19:03;;;;;;;4.83;3.67;;;;;;;;;;5039336;28;20500;-80
2022/02/01 07:21:29;;;;;;;5.80;4.70;;;;;;;;;;5038205;28;20407;-79
2022/02/01 07:23:56;;;;;;;6.10;4.23;;;;;;;;;;5039709;28;20399;-81
2022/02/01 07:26:23;;;;;;;10.40;5.97;;;;;;;;;;5040326;28;20414;-80
2022/02/01 07:28:49;;;;;;;13.87;5.50;;;;;;;;;;5039272;28;20402;-80
2022/02/01 07:31:15;;;;;;;8.90;4.63;;;;;;;;;;5041655;28;20457;-78
2022/02/01 07:33:41;;;;;;;9.30;5.27;;;;;;;;;;5048767;28;20405;-79
2022/02/01 07:36:07;;;;;;;13.53;4.73;;;;;;;;;;5044720;28;20450;-82
2022/02/01 07:38:34;;;;;;;11.50;5.17;;;;;;;;;;5041100;28;20402;-82
2022/02/01 07:41:00;;;;;;;19.77;6.33;;;;;;;;;;5039119;28;20485;-80
2022/02/01 07:43:31;;;;;;;17.33;5.60;;;;;;;;;;5038956;28;20431;-81
2022/02/01 07:46:07;;;;;;;11.00;4.23;;;;;;;;;;5039032;28;20443;-81
2022/02/01 07:48:34;;;;;;;17.00;4.67;;;;;;;;;;5039448;28;20406;-81
2022/02/01 07:51:00;;;;;;;17.43;5.27;;;;;;;;;;5040038;28;20415;-81
2022/02/01 07:53:26;;;;;;;8.07;4.17;;;;;;;;;;5039867;28;20486;-81
2022/02/01 07:55:52;;;;;;;12.67;4.30;;;;;;;;;;5039674;28;20432;-82
2022/02/01 07:58:18;;;;;;;27.33;4.60;;;;;;;;;;5034475;28;20426;-80
2022/02/01 08:00:44;;;;;;;13.13;4.07;;;;;;;;;;5026356;28;20411;-81
2022/02/01 08:03:12;;;;;;;11.60;4.57;;;;;;;;;;5035626;28;20411;-81
2022/02/01 08:05:38;;;;;;;7.03;3.93;;;;;;;;;;5039662;28;20435;-81
2022/02/01 08:08:04;;;;;;;11.97;4.40;;;;;;;;;;5041651;28;20473;-81
2022/02/01 08:10:39;;;;;;;15.20;4.87;;;;;;;;;;5038211;28;20477;-81
2022/02/01 08:21:24;;;;;;;13.70;5.10;;;;;;;;;;5030417;28;20391;-80
2022/02/01 08:23:50;;;;;;;16.17;5.30;;;;;;;;;;5034017;28;20395;-80
2022/02/01 08:26:17;;;;;;;18.23;5.77;;;;;;;;;;5036322;28;20441;-80
2022/02/01 08:28:43;;;;;;;14.33;5.50;;;;;;;;;;5034722;28;20938;-80
2022/02/01 08:31:09;;;;;;;15.87;4.83;;;;;;;;;;5034072;28;20434;-81
2022/02/01 08:33:38;;;;;;;16.57;5.60;;;;;;;;;;5037217;28;20403;-80
2022/02/01 08:36:04;;;;;;;15.70;4.67;;;;;;;;;;5035199;28;22015;-80
2022/02/01 08:38:30;;;;;;;14.47;4.27;;;;;;;;;;5035545;28;20430;-81
2022/02/01 08:40:58;;;;;;;12.67;4.80;;;;;;;;;;5037249;28;20427;-80
2022/02/01 08:43:24;;;;;;;17.50;3.80;;;;;;;;;;5035334;28;22244;-80
2022/02/01 08:45:50;;;;;;;14.75;5.10;;;;;;;;;;5033963;28;20453;-81
2022/02/01 08:48:17;;;;;;;17.00;4.67;;;;;;;;;;5035921;28;20199;-81
2022/02/01 08:50:43;;;;;;;16.23;5.43;;;;;;;;;;5036320;28;20439;-78
2022/02/01 08:53:24;;;;;;;20.20;4.83;;;;;;;;;;5036415;28;20407;-83
2022/02/01 08:58:20;;;;;;;16.70;4.60;;;;;;;;;;5031574;28;20430;-82
2022/02/01 09:00:46;;;;;;;19.93;4.20;;;;;;;;;;5035291;28;20437;-79
2022/02/01 09:03:13;;;;;;;8.17;4.30;;;;;;;;;;5037658;28;20411;-81
2022/02/01 09:05:48;;;;;;;11.30;3.90;;;;;;;;;;5040287;28;20430;-83
2022/02/01 09:08:14;;;;;;;14.50;3.73;;;;;;;;;;5037625;28;20464;-83
2022/02/01 09:10:41;;;;;;;8.90;3.40;;;;;;;;;;5036829;28;20445;-81
2022/02/01 09:13:07;;;;;;;9.20;3.40;;;;;;;;;;5035328;28;20413;-81
2022/02/01 09:15:34;;;;;;;13.70;2.87;;;;;;;;;;5026947;28;20458;-82
2022/02/01 09:18:01;;;;;;;7.77;3.13;;;;;;;;;;5037940;28;20466;-82
2022/02/01 09:20:27;;;;;;;12.90;4.07;;;;;;;;;;5033048;28;20411;-83
2022/02/01 09:22:53;;;;;;;12.20;4.10;;;;;;;;;;5033788;28;20426;-81
2022/02/01 09:25:20;;;;;;;15.73;3.63;;;;;;;;;;5033694;28;20442;-81
2022/02/01 09:27:47;;;;;;;14.37;3.93;;;;;;;;;;5036975;28;20418;-82
2022/02/01 09:30:14;;;;;;;10.37;3.30;;;;;;;;;;5031210;28;20552;-82
2022/02/01 09:32:41;;;;;;;16.90;5.30;;;;;;;;;;5038228;28;20797;-83
2022/02/01 09:35:07;;;;;;;10.67;5.00;;;;;;;;;;5037723;28;20439;-83
2022/02/01 09:37:33;;;;;;;10.50;3.70;;;;;;;;;;5036966;28;20874;-82
2022/02/01 09:39:59;;;;;;;20.40;3.70;;;;;;;;;;5032595;28;20454;-81
2022/02/01 09:42:27;;;;;;;14.90;3.97;;;;;;;;;;5035339;28;20430;-83
2022/02/01 09:44:57;;;;;;;10.73;3.73;;;;;;;;;;5035123;28;20811;-82
2022/02/01 09:47:32;;;;;;;15.70;4.67;;;;;;;;;;5035357;28;20516;-83
2022/02/01 09:49:58;;;;;;;8.60;3.00;;;;;;;;;;5033282;28;20426;-83
2022/02/01 09:52:24;;;;;;;13.35;3.33;;;;;;;;;;5039692;28;20425;-81
2022/02/01 09:54:52;;;;;;;12.20;3.13;;;;;;;;;;5033526;28;20195;-82
2022/02/01 09:57:21;;;;;;;11.43;3.30;;;;;;;;;;5030933;28;20486;-81
2022/02/01 09:59:57;;;;;;;13.00;3.00;;;;;;;;;;5027090;28;20456;-82
2022/02/01 10:02:34;;;;;;;14.30;3.07;;;;;;;;;;5034673;28;20958;-82
2022/02/01 10:05:04;;;;;;;11.48;3.28;;;;;;;;;;5037332;28;20991;-82
2022/02/01 10:07:30;;;;;;;13.73;3.80;;;;;;;;;;5038540;28;20172;-82
2022/02/01 10:09:58;;;;;;;12.07;3.27;;;;;;;;;;5032166;28;20423;-82
2022/02/01 10:12:27;;;;;;;7.00;2.40;;;;;;;;;;5038217;28;20423;-81
2022/02/01 10:15:07;;;;;;;5.40;2.70;;;;;;;;;;5038242;28;20446;-81
2022/02/01 10:17:43;;;;;;;8.80;3.00;;;;;;;;;;5035971;28;20511;-81
2022/02/01 10:20:09;;;;;;;9.67;2.87;;;;;;;;;;5040806;28;20442;-82
2022/02/01 10:22:36;;;;;;;13.60;3.30;;;;;;;;;;5041526;28;20419;-82
2022/02/01 10:25:29;;;;;;;5.77;2.80;;;;;;;;;;5040481;28;20433;-82
2022/02/01 10:27:58;;;;;;;11.03;2.73;;;;;;;;;;5042542;28;20422;-81
2022/02/01 10:30:40;;;;;;;4.23;2.00;;;;;;;;;;5045268;28;20442;-82
2022/02/01 10:33:20;;;;;;;9.40;2.80;;;;;;;;;;5039549;28;20461;-81
2022/02/01 10:35:57;;;;;;;11.00;2.60;;;;;;;;;;5038929;28;20433;-82
2022/02/01 10:38:24;;;;;;;6.13;2.90;;;;;;;;;;5037830;28;20402;-81
2022/02/01 10:40:51;;;;;;;9.40;2.77;;;;;;;;;;5040266;28;20422;-81
2022/02/01 10:43:23;;;;;;;13.27;2.67;;;;;;;;;;5036525;28;20436;-82
2022/02/01 10:45:51;;;;;;;9.07;2.73;;;;;;;;;;5022949;28;20462;-82
2022/02/01 10:48:19;;;;;;;8.73;2.83;;;;;;;;;;5038620;28;20425;-82
2022/02/01 10:50:46;;;;;;;4.13;2.37;;;;;;;;;;5036913;28;20449;-81
2022/02/01 10:53:19;;;;;;;10.13;3.00;;;;;;;;;;5025053;28;20443;-81
2022/02/01 10:55:46;;;;;;;11.57;2.37;;;;;;;;;;5037231;28;20965;-81
2022/02/01 10:58:14;;;;;;;5.10;2.87;;;;;;;;;;5030986;28;20454;-81
2022/02/01 11:00:41;;;;;;;10.10;2.50;;;;;;;;;;5034552;28;20421;-81
2022/02/01 11:03:07;;;;;;;4.53;2.33;;;;;;;;;;5035820;28;20476;-81
2022/02/01 11:05:34;;;;;;;7.10;2.70;;;;;;;;;;5030715;28;20438;-79
2022/02/01 11:08:00;;;;;;;9.70;2.63;;;;;;;;;;5029539;28;20780;-81
2022/02/01 11:10:26;;;;;;;11.20;3.50;;;;;;;;;;5030494;28;20446;-80
2022/02/01 11:13:03;;;;;;;15.60;3.33;;;;;;;;;;5028836;28;20437;-80
2022/02/01 11:15:29;;;;;;;9.80;2.90;;;;;;;;;;5027240;28;20473;-82
2022/02/01 11:17:55;;;;;;;5.97;3.00;;;;;;;;;;5032942;28;20454;-82
2022/02/01 11:20:32;;;;;;;5.03;2.20;;;;;;;;;;5029298;28;20508;-81
2022/02/01 11:23:02;;;;;;;6.33;3.00;;;;;;;;;;5032390;28;20436;-83
2022/02/01 11:25:41;;;;;;;10.30;2.60;;;;;;;;;;5027683;28;20504;-83
2022/02/01 11:28:13;;;;;;;7.13;3.27;;;;;;;;;;5026591;28;20790;-82
2022/02/01 11:30:40;;;;;;;5.00;2.53;;;;;;;;;;5028676;28;20441;-81
2022/02/01 11:33:07;;;;;;;4.70;2.27;;;;;;;;;;5029785;28;20435;-81
2022/02/01 11:35:34;;;;;;;4.97;2.03;;;;;;;;;;5027769;28;20447;-83
2022/02/01 11:38:14;;;;;;;6.03;2.13;;;;;;;;;;5033872;28;20481;-83
2022/02/01 11:40:42;;;;;;;6.07;2.73;;;;;;;;;;5036004;28;20441;-83
2022/02/01 11:43:10;;;;;;;5.10;2.40;;;;;;;;;;5028497;28;20795;-83
2022/02/01 11:45:36;;;;;;;5.03;3.03;;;;;;;;;;5031136;28;20215;-80
2022/02/01 11:48:15;;;;;;;7.50;2.67;;;;;;;;;;5029640;28;20420;-81
2022/02/01 11:50:48;;;;;;;4.90;2.10;;;;;;;;;;5029426;28;20538;-81
2022/02/01 11:53:19;;;;;;;13.60;2.40;;;;;;;;;;5035784;28;20457;-83
2022/02/01 11:55:46;;;;;;;6.53;2.60;;;;;;;;;;5033104;28;20457;-81
2022/02/01 11:58:12;;;;;;;4.77;2.30;;;;;;;;;;5031432;28;20438;-79
2022/02/01 12:00:39;;;;;;;4.17;2.43;;;;;;;;;;5031887;28;20510;-80
2022/02/01 12:03:06;;;;;;;5.80;2.23;;;;;;;;;;5028046;28;20948;-81
2022/02/01 12:05:32;;;;;;;6.93;2.57;;;;;;;;;;5036205;28;20454;-80
2022/02/01 12:08:12;;;;;;;11.77;2.90;;;;;;;;;;5034471;28;20431;-81
2022/02/01 12:10:50;;;;;;;5.80;3.43;;;;;;;;;;5039751;28;20486;-81
2022/02/01 12:13:17;;;;;;;5.10;2.57;;;;;;;;;;5041028;28;20423;-81
2022/02/01 12:15:43;;;;;;;11.00;2.60;;;;;;;;;;5034172;28;20446;-82
2022/02/01 12:18:09;;;;;;;6.17;2.73;;;;;;;;;;5040771;28;20423;-82
2022/02/01 12:20:40;;;;;;;8.33;2.17;;;;;;;;;;5042330;28;20419;-82
2022/02/01 12:23:12;;;;;;;5.13;2.33;;;;;;;;;;5042756;28;20405;-81
2022/02/01 12:25:38;;;;;;;3.80;2.10;;;;;;;;;;5039715;28;20554;-81
2022/02/01 12:28:14;;;;;;;13.03;4.10;;;;;;;;;;5041227;28;20403;-80
2022/02/01 12:30:40;;;;;;;5.90;3.10;;;;;;;;;;5051645;28;20410;-81
2022/02/01 12:33:14;;;;;;;5.13;2.40;;;;;;;;;;5041622;28;20455;-81
2022/02/01 12:35:42;;;;;;;4.10;2.17;;;;;;;;;;5032883;28;20470;-83
2022/02/01 12:38:12;;;;;;;4.37;2.30;;;;;;;;;;5038724;28;20977;-81
2022/02/01 12:40:38;;;;;;;11.70;2.73;;;;;;;;;;5040605;28;20811;-81
2022/02/01 12:43:12;;;;;;;4.13;2.07;;;;;;;;;;5041868;28;20422;-81
2022/02/01 12:45:55;;;;;;;9.37;2.63;;;;;;;;;;5040458;28;20544;-82
2022/02/01 12:48:22;;;;;;;5.30;2.73;;;;;;;;;;5039452;28;20407;-82
2022/02/01 12:51:14;;;;;;;6.10;2.53;;;;;;;;;;5035076;28;20450;-82
2022/02/01 12:53:45;;;;;;;8.37;2.70;;;;;;;;;;5024458;28;20420;-82
2022/02/01 12:56:14;;;;;;;6.70;2.77;;;;;;;;;;5032637;28;20482;-81
2022/02/01 12:58:40;;;;;;;4.60;2.55;;;;;;;;;;5036501;28;20497;-81
2022/02/01 13:01:07;;;;;;;7.73;2.50;;;;;;;;;;5038746;28;20172;-80
2022/02/01 13:03:39;;;;;;;8.00;3.17;;;;;;;;;;5033720;28;20420;-80
2022/02/01 13:06:11;;;;;;;11.30;2.40;;;;;;;;;;5037037;28;20442;-81
2022/02/01 13:12:53;;;;;;;7.40;2.50;;;;;;;;;;5031967;28;20446;-83
2022/02/01 13:14:37;;;;;;;7.70;2.90;;;;;;;;;;5034768;28;20411;-82
2022/02/01 13:17:18;;;;;;;4.53;3.07;;;;;;;;;;5039129;28;20203;-82
2022/02/01 13:20:10;;;;;;;9.70;2.20;;;;;;;;;;5036515;28;20442;-83
2022/02/01 13:22:36;;;;;;;12.43;3.00;;;;;;;;;;5032482;28;20407;-80
2022/02/01 13:25:07;;;;;;;4.13;2.40;;;;;;;;;;5043795;28;20439;-82
2022/02/01 13:27:33;;;;;;;5.23;2.83;;;;;;;;;;5033398;28;20423;-81
2022/02/01 13:30:00;;;;;;;3.80;2.07;;;;;;;;;;5039368;28;20453;-82
2022/02/01 13:32:40;;;;;;;4.73;2.50;;;;;;;;;;5030865;28;20462;-80
2022/02/01 13:35:07;;;;;;;6.50;2.13;;;;;;;;;;5039816;28;20430;-82
2022/02/01 13:37:34;;;;;;;4.37;2.00;;;;;;;;;;5044842;28;20457;-81
2022/02/01 13:40:00;;;;;;;3.30;1.93;;;;;;;;;;5034362;28;20430;-83
2022/02/01 13:42:31;;;;;;;4.93;2.13;;;;;;;;;;5040732;28;22017;-81
2022/02/01 13:45:04;;;;;;;4.70;2.50;;;;;;;;;;5037557;28;20451;-82
2022/02/01 13:47:37;;;;;;;6.03;2.90;;;;;;;;;;5032627;28;20460;-82
2022/02/01 13:50:05;;;;;;;5.17;2.77;;;;;;;;;;5036515;28;20418;-81
2022/02/01 13:52:31;;;;;;;6.20;2.77;;;;;;;;;;5034462;28;20423;-81
2022/02/01 13:54:58;;;;;;;8.60;2.80;;;;;;;;;;5034997;28;20481;-81
2022/02/01 13:57:28;;;;;;;6.37;2.43;;;;;;;;;;5036985;28;20969;-83
2022/02/01 14:00:06;;;;;;;2.90;1.70;;;;;;;;;;5033646;28;20516;-82
2022/02/01 14:02:37;;;;;;;5.30;2.80;;;;;;;;;;5032635;28;20945;-82
2022/02/01 14:05:07;;;;;;;5.87;2.20;;;;;;;;;;5031450;28;20442;-82
2022/02/01 14:32:05;;;;;;;3.00;1.90;;;;;;;;;;5031125;28;20426;-82
2022/02/01 14:32:28;;;;;;;4.82;2.40;;;;;;;;;;5033878;28;20549;-82
2022/02/01 14:34:51;;;;;;;8.10;2.00;;;;;;;;;;5035300;28;20196;-82
2022/02/01 14:37:24;;;;;;;4.72;1.80;;;;;;;;;;5035362;28;20470;-81
2022/02/01 14:45:08;;;;;;;2.40;1.67;;;;;;;;;;5037931;28;20461;-81
2022/02/01 14:47:34;;;;;;;5.63;2.40;;;;;;;;;;5030399;28;20466;-80
2022/02/01 14:50:00;;;;;;;7.57;2.20;;;;;;;;;;5036803;28;20394;-81
2022/02/01 14:52:27;;;;;;;4.50;1.97;;;;;;;;;;5039059;28;20421;-81
2022/02/01 14:54:58;;;;;;;3.20;2.33;;;;;;;;;;5034187;28;20444;-82
2022/02/01 15:13:39;;;;;;;2.53;1.53;;;;;;;;;;5039693;28;20426;-80
2022/02/01 15:16:05;;;;;;;2.80;2.00;;;;;;;;;;5039677;28;20495;-82
2022/02/01 15:18:31;;;;;;;2.70;1.70;;;;;;;;;;5039561;28;20499;-79
2022/02/01 15:20:58;;;;;;;8.13;1.80;;;;;;;;;;5037398;28;20427;-80
2022/02/01 15:23:24;;;;;;;7.93;1.70;;;;;;;;;;5029442;28;20422;-82
2022/02/01 15:25:51;;;;;;;5.07;1.80;;;;;;;;;;5033674;28;20434;-82
2022/02/01 15:28:18;;;;;;;4.27;1.50;;;;;;;;;;5040298;28;20426;-81
2022/02/01 15:30:44;;;;;;;2.67;1.60;;;;;;;;;;5036001;28;20422;-82
2022/02/01 15:33:12;;;;;;;9.87;1.83;;;;;;;;;;5037052;28;20430;-81
2022/02/01 15:35:39;;;;;;;5.17;1.83;;;;;;;;;;5037749;28;20515;-81
2022/02/01 15:38:08;;;;;;;3.37;1.77;;;;;;;;;;5040163;28;20462;-81
2022/02/01 15:59:16;;;;;;;2.60;1.63;;;;;;;;;;5030270;28;20411;-79
2022/02/01 16:02:02;;;;;;;2.27;1.33;;;;;;;;;;5031373;28;20501;-79
2022/02/01 16:04:29;;;;;;;3.33;1.87;;;;;;;;;;5034761;28;20443;-80
2022/02/01 16:07:02;;;;;;;4.13;1.40;;;;;;;;;;5033823;28;20448;-80
2022/02/01 16:11:55;;;;;;;4.87;2.10;;;;;;;;;;5032894;28;20838;-81
2022/02/01 16:14:21;;;;;;;4.40;1.90;;;;;;;;;;5040282;28;20473;-81
2022/02/01 16:16:47;;;;;;;2.23;1.53;;;;;;;;;;5033680;28;20454;-79
2022/02/01 16:19:15;;;;;;;2.80;1.50;;;;;;;;;;5044095;28;20424;-79
2022/02/01 16:21:42;;;;;;;3.30;1.70;;;;;;;;;;5044684;28;20423;-83
2022/02/01 16:24:08;;;;;;;2.00;1.10;;;;;;;;;;5029579;28;20526;-83
2022/02/01 16:26:35;;;;;;;3.77;1.80;;;;;;;;;;5035787;28;20418;-80
2022/02/01 16:29:01;;;;;;;3.20;1.70;;;;;;;;;;5036927;28;20426;-81
2022/02/01 16:31:29;;;;;;;2.63;1.17;;;;;;;;;;5033249;28;20425;-82
2022/02/01 16:33:56;;;;;;;3.17;1.87;;;;;;;;;;5037433;28;20415;-82
2022/02/01 16:36:24;;;;;;;3.37;1.40;;;;;;;;;;5031219;28;20882;-82
2022/02/01 16:38:50;;;;;;;2.53;1.40;;;;;;;;;;5035823;28;20468;-81
2022/02/01 16:41:17;;;;;;;4.40;1.70;;;;;;;;;;5036615;28;20501;-81
2022/02/01 16:43:43;;;;;;;4.47;1.20;;;;;;;;;;5034621;28;20418;-82
2022/02/01 16:46:09;;;;;;;1.63;1.30;;;;;;;;;;5034444;28;20509;-82
2022/02/01 16:48:36;;;;;;;2.00;1.07;;;;;;;;;;5032717;28;20802;-82
2022/02/01 16:51:03;;;;;;;3.00;1.30;;;;;;;;;;5035087;28;20506;-82
2022/02/01 16:53:53;;;;;;;3.83;1.67;;;;;;;;;;5035656;28;20419;-84
2022/02/01 16:56:40;;;;;;;2.40;1.23;;;;;;;;;;5034240;28;20965;-82
2022/02/01 16:59:19;;;;;;;2.03;1.40;;;;;;;;;;5035852;28;20498;-83
2022/02/01 17:01:50;;;;;;;2.83;1.10;;;;;;;;;;5033037;28;20407;-82
2022/02/01 17:04:17;;;;;;;2.73;1.20;;;;;;;;;;5038615;28;20447;-83
2022/02/01 17:06:43;;;;;;;3.17;1.87;;;;;;;;;;5033422;28;20438;-83
2022/02/01 17:09:11;;;;;;;2.03;1.47;;;;;;;;;;5035881;28;20427;-82
2022/02/01 17:26:19;;;;;;;3.10;1.37;;;;;;;;;;4998133;28;20404;-80
2022/02/01 17:35:31;;;;;;;1.63;1.40;;;;;;;;;;4999402;28;20404;-81
2022/02/01 17:44:43;;;;;;;;;;;;;;;;;;;;;
2022/02/01 18:00:05;;;;;;;1.60;1.00;;;;;;;;;;4997100;28;20857;-81
2022/02/01 18:02:50;;;;;;;1.70;0.97;;;;;;;;;;4986075;28;20468;-81
2022/02/01 18:09:11;;;;;;;2.07;1.10;;;;;;;;;;4919681;29;20403;-80
2022/02/01 18:21:04;;;;;;;2.70;1.13;;;;;;;;;;4948857;28;20429;-81
2022/02/01 18:23:37;;;;;;;2.27;1.10;;;;;;;;;;4999851;28;20850;-81
2022/02/01 18:26:21;;;;;;;1.30;1.00;;;;;;;;;;5004019;28;20447;-81
2022/02/01 18:28:58;;;;;;;;;;;;;;;;;;;;;
2022/02/01 18:34:05;;;;;;;2.70;1.27;;;;;;;;;;5027104;28;20463;-80
2022/02/01 19:15:33;;;;;;;;;;;;;;;;;;;;;
2022/02/01 19:32:43;;;;;;;;;;;;;;;;;;;;;
2022/02/01 19:38:54;;;;;;;;;;;;;;;;;;;;;
2022/02/01 19:45:26;;;;;;;1.83;1.53;;;;;;;;;;4828654;29;20487;-80
2022/02/01 19:54:15;;;;;;;2.07;1.43;;;;;;;;;;5039439;22;20475;-81
2022/02/01 19:57:16;;;;;;;2.00;1.33;;;;;;;;;;5017338;28;20467;-81
2022/02/01 20:03:31;;;;;;;;;;;;;;;;;;;;;
2022/02/01 20:06:49;;;;;;;1.97;1.70;;;;;;;;;;5021291;28;20502;-82
2022/02/01 20:49:36;;;;;;;;;;;;;;;;;;;;;
2022/02/01 21:05:33;;;;;;;;;;;;;;;;;;;;;
2022/02/01 21:17:46;;;;;;;1.53;1.07;;;;;;;;;;5033420;28;20469;-81
2022/02/01 21:30:44;;;;;;;;;;;;;;;;;;;;;
2022/02/01 21:33:45;;;;;;;1.47;1.20;;;;;;;;;;5028254;28;20513;-81
2022/02/01 21:39:47;;;;;;;;;;;;;;;;;;;;;
2022/02/01 21:55:27;;;;;;;;;;;;;;;;;;;;;
2022/02/01 21:58:27;;;;;;;1.37;1.00;;;;;;;;;;5038063;28;20541;-82
2022/02/01 22:01:21;;;;;;;;;;;;;;;;;;;;;
2022/02/01 22:07:02;;;;;;;1.50;1.30;;;;;;;;;;4976736;28;20810;-81
2022/02/01 22:31:43;;;;;;;1.87;1.30;;;;;;;;;;5006473;28;20512;-82
2022/02/01 22:34:45;;;;;;;3.00;1.43;;;;;;;;;;5017811;28;20404;-81
2022/02/01 23:17:56;;;;;;;2.27;1.60;;;;;;;;;;5019240;28;20463;-82
2022/02/01 23:20:23;;;;;;;2.97;1.53;;;;;;;;;;5018819;28;20422;-81
2022/02/01 23:22:50;;;;;;;3.23;1.70;;;;;;;;;;5019098;28;20503;-82
2022/02/01 23:25:16;;;;;;;2.73;1.50;;;;;;;;;;5020964;28;20404;-83
2022/02/01 23:27:49;;;;;;;4.20;1.63;;;;;;;;;;5018756;28;20888;-83
2022/02/01 23:30:16;;;;;;;2.63;1.57;;;;;;;;;;5018468;28;20383;-83
2022/02/01 23:35:41;;;;;;;1.40;1.10;;;;;;;;;;5018780;28;20395;-84
2022/02/01 23:48:33;;;;;;;2.10;1.90;;;;;;;;;;5018683;28;20535;-83
2022/02/01 23:50:59;;;;;;;2.10;1.80;;;;;;;;;;5018733;28;20416;-83
2022/02/01 23:53:29;;;;;;;4.73;2.00;;;;;;;;;;5016973;28;20442;-83
2022/02/01 23:56:00;;;;;;;2.23;1.80;;;;;;;;;;5018145;28;20392;-83
2022/02/01 23:58:31;;;;;;;2.50;2.30;;;;;;;;;;5018426;28;20947;-83
